Elwyn Terrace, Pennsylvania
Current Conditions -  °F | °C
As of 1:53 PM on Sunday 21 Dec 2014 (Local Time) from KLNS Reporting Station
Overcast Overcast  
Wind Chill: 29°   Ceiling: 2700
Heat Index: 33°   Visibility: 10mi
Dew Point: 22°   Wind: 5mph
Humidity: 64%   Direction: 310°NW
Pressure: 30.3"   Gusts: NA
Location:  40.1777°N, 76.4291°W
Report Text: KLNS 211853Z 31004KT 10SM OVC027 01/M06 A3030 RMK AO2 SLP264 T00061056
Loading
Personal Weather Stations






























Interactive Weather Map New forecast layout! Learn more

10-Day Weather Forecast

Advertisements
Track Severe Weather on mobile